Time;durP1;ratioP1;P1;durP2;ratioP2;P2;SDS_P1;SDS_P2;PMS_P1;PMS_P2;Temp;Humidity;BMP_temperature;BMP_pressure;BME280_temperature;BME280_humidity;BME280_pressure;Samples;Min_cycle;Max_cycle;Signal;HPM_P1;HPM_P2
2023/09/26 00:00:21;;;;;;;4.20;3.53;;;12.40;99.90;;;;;;5032799;28;20414;-65
2023/09/26 00:02:56;;;;;;;7.88;2.80;;;12.40;99.90;;;;;;5039635;28;20049;-67
2023/09/26 00:05:23;;;;;;;8.10;3.65;;;12.40;99.90;;;;;;5045812;28;20045;-65
2023/09/26 00:07:51;;;;;;;6.30;3.83;;;12.40;99.90;;;;;;5038739;28;20045;-70
2023/09/26 00:10:19;;;;;;;5.22;3.53;;;12.50;99.90;;;;;;5042355;28;20052;-63
2023/09/26 00:12:46;;;;;;;10.02;5.00;;;12.50;99.90;;;;;;5041023;28;20548;-64
2023/09/26 00:15:14;;;;;;;5.47;2.97;;;12.60;99.90;;;;;;5039599;28;20442;-64
2023/09/26 00:17:41;;;;;;;4.82;4.10;;;12.60;99.90;;;;;;5044012;28;20057;-66
2023/09/26 00:20:18;;;;;;;5.05;4.07;;;12.60;99.90;;;;;;5037933;28;20041;-72
2023/09/26 00:22:46;;;;;;;4.45;3.47;;;12.60;99.90;;;;;;5033862;28;20042;-66
2023/09/26 00:25:13;;;;;;;6.63;3.08;;;12.50;99.90;;;;;;5035813;28;20059;-67
2023/09/26 00:27:40;;;;;;;4.95;3.90;;;12.40;99.90;;;;;;5035594;28;20040;-68
2023/09/26 00:30:08;;;;;;;4.38;3.25;;;12.40;99.90;;;;;;5037221;28;20076;-65
2023/09/26 00:32:36;;;;;;;5.97;3.63;;;12.30;99.90;;;;;;5034361;28;20073;-66
2023/09/26 00:35:05;;;;;;;5.53;2.92;;;12.30;99.90;;;;;;5042244;28;20051;-72
2023/09/26 00:37:32;;;;;;;6.32;3.30;;;12.20;99.90;;;;;;5032517;28;20128;-64
2023/09/26 00:39:59;;;;;;;6.38;3.42;;;12.10;99.90;;;;;;5036885;28;20088;-65
2023/09/26 00:42:27;;;;;;;7.25;3.35;;;12.10;99.90;;;;;;5041170;28;20052;-74
2023/09/26 00:44:55;;;;;;;5.18;2.60;;;12.00;99.90;;;;;;5034667;28;20052;-65
2023/09/26 00:47:22;;;;;;;4.88;3.60;;;12.00;99.90;;;;;;5032941;28;20056;-77
2023/09/26 00:49:49;;;;;;;3.45;2.28;;;12.00;99.90;;;;;;5039164;28;20045;-72
2023/09/26 00:52:16;;;;;;;18.77;4.93;;;11.90;99.90;;;;;;5041036;28;20375;-65
2023/09/26 00:54:43;;;;;;;4.03;3.28;;;11.90;99.90;;;;;;5039942;28;20463;-69
2023/09/26 00:57:10;;;;;;;4.22;2.65;;;11.90;99.90;;;;;;5033660;28;20057;-74
2023/09/26 00:59:39;;;;;;;8.85;4.97;;;11.90;99.90;;;;;;5038205;28;20045;-65
2023/09/26 01:02:06;;;;;;;5.72;3.50;;;11.80;99.90;;;;;;5064712;28;20465;-64
2023/09/26 01:04:33;;;;;;;7.95;5.03;;;11.80;99.90;;;;;;5038694;28;20116;-67
2023/09/26 01:07:00;;;;;;;8.20;3.92;;;11.90;99.90;;;;;;5033304;28;20053;-70
2023/09/26 01:09:27;;;;;;;11.75;4.22;;;11.80;99.90;;;;;;5035514;28;20056;-64
2023/09/26 01:11:54;;;;;;;7.63;4.15;;;11.80;99.90;;;;;;5033734;28;20068;-75
2023/09/26 01:14:21;;;;;;;4.78;3.63;;;11.80;99.90;;;;;;5036736;28;20045;-65
2023/09/26 01:16:57;;;;;;;6.00;4.10;;;11.80;99.90;;;;;;5036341;28;20049;-75
2023/09/26 01:19:24;;;;;;;3.72;3.28;;;11.80;99.90;;;;;;5030645;28;20041;-63
2023/09/26 01:21:52;;;;;;;6.72;3.58;;;11.80;99.90;;;;;;5037567;28;20044;-67
2023/09/26 01:24:19;;;;;;;6.50;3.70;;;11.80;99.90;;;;;;5034191;28;20053;-63
2023/09/26 01:26:46;;;;;;;4.55;3.25;;;11.80;99.90;;;;;;5039448;28;20076;-72
2023/09/26 01:29:13;;;;;;;6.90;4.05;;;11.80;99.90;;;;;;5037432;28;20052;-66
2023/09/26 01:31:40;;;;;;;4.88;3.70;;;11.80;99.90;;;;;;5035706;28;20549;-72
2023/09/26 01:34:07;;;;;;;6.40;4.00;;;11.90;99.90;;;;;;5028234;28;20049;-70
2023/09/26 01:36:35;;;;;;;5.57;3.67;;;11.90;99.90;;;;;;5035708;28;20053;-64
2023/09/26 01:39:02;;;;;;;6.90;4.03;;;11.90;99.90;;;;;;5032967;28;20060;-66
2023/09/26 01:41:30;;;;;;;5.97;4.20;;;12.00;99.90;;;;;;5033241;28;20042;-64
2023/09/26 01:43:57;;;;;;;11.18;3.65;;;12.00;99.90;;;;;;5031518;28;20041;-63
2023/09/26 01:46:24;;;;;;;5.80;3.58;;;11.90;99.90;;;;;;5032847;28;20053;-66
2023/09/26 01:48:51;;;;;;;5.05;4.28;;;11.90;99.90;;;;;;5029682;28;20080;-68
2023/09/26 01:51:19;;;;;;;3.67;3.22;;;11.90;99.90;;;;;;5031633;28;20057;-65
2023/09/26 01:53:46;;;;;;;6.00;3.95;;;11.90;99.90;;;;;;5032623;28;20142;-63
2023/09/26 01:56:13;;;;;;;8.07;3.78;;;12.00;99.90;;;;;;5034700;28;20065;-64
2023/09/26 01:58:40;;;;;;;6.82;3.75;;;12.00;99.90;;;;;;5029145;28;20053;-70
2023/09/26 02:01:07;;;;;;;6.22;4.13;;;12.00;99.90;;;;;;5034075;28;20060;-71
2023/09/26 02:03:35;;;;;;;6.95;4.35;;;12.00;99.90;;;;;;5032429;28;20049;-66
2023/09/26 02:06:02;;;;;;;6.07;4.05;;;12.00;99.90;;;;;;5033813;28;20049;-65
2023/09/26 02:08:29;;;;;;;6.60;4.28;;;12.00;99.90;;;;;;5030669;28;20057;-64
2023/09/26 02:10:55;;;;;;;6.65;4.10;;;12.10;99.90;;;;;;5033891;28;20106;-66
2023/09/26 02:13:24;;;;;;;7.82;4.40;;;12.10;99.90;;;;;;5035032;28;20096;-65
2023/09/26 02:15:52;;;;;;;5.60;3.53;;;12.10;99.90;;;;;;5035514;28;20036;-67
2023/09/26 02:18:19;;;;;;;7.30;5.05;;;12.10;99.90;;;;;;5031123;28;20037;-65
2023/09/26 02:20:46;;;;;;;7.75;4.25;;;12.10;99.90;;;;;;5037200;28;20053;-66
2023/09/26 02:23:12;;;;;;;5.07;3.55;;;12.20;99.90;;;;;;5031857;28;20102;-75
2023/09/26 02:25:40;;;;;;;5.57;4.68;;;12.20;99.90;;;;;;5027592;28;20147;-67
2023/09/26 02:28:07;;;;;;;5.63;3.90;;;12.20;99.90;;;;;;5034434;28;20063;-65
2023/09/26 02:30:34;;;;;;;6.88;4.38;;;12.20;99.90;;;;;;5035543;28;20052;-64
2023/09/26 02:33:00;;;;;;;6.70;4.55;;;12.20;99.90;;;;;;5028699;28;20080;-70
2023/09/26 02:35:27;;;;;;;6.93;4.57;;;12.20;99.90;;;;;;5033424;28;20128;-68
2023/09/26 02:37:55;;;;;;;8.15;3.78;;;12.20;99.90;;;;;;5032693;28;20034;-68
2023/09/26 02:40:22;;;;;;;6.78;3.88;;;12.30;99.90;;;;;;5029131;28;20048;-67
2023/09/26 02:42:50;;;;;;;6.32;3.67;;;12.20;99.90;;;;;;5035853;28;20068;-65
2023/09/26 02:45:17;;;;;;;13.02;5.07;;;12.20;99.90;;;;;;5037855;28;20087;-64
2023/09/26 02:47:46;;;;;;;9.68;4.28;;;12.20;99.90;;;;;;5033049;28;20069;-64
2023/09/26 02:50:13;;;;;;;11.77;4.28;;;12.20;99.90;;;;;;5032026;28;20069;-64
2023/09/26 02:52:43;;;;;;;9.23;4.95;;;12.30;99.90;;;;;;5031289;28;20049;-71
2023/09/26 02:55:11;;;;;;;9.35;4.82;;;12.30;99.90;;;;;;5031821;28;20061;-63
2023/09/26 02:57:38;;;;;;;9.60;4.28;;;12.30;99.90;;;;;;5029611;28;20127;-64
2023/09/26 03:00:14;;;;;;;7.85;5.15;;;12.40;99.90;;;;;;5038333;28;20048;-70
2023/09/26 03:02:41;;;;;;;10.25;4.82;;;12.40;99.90;;;;;;5028926;28;20378;-71
2023/09/26 03:05:11;;;;;;;13.38;5.55;;;12.40;99.90;;;;;;5036140;28;20071;-63
2023/09/26 03:07:39;;;;;;;5.22;3.40;;;12.40;99.90;;;;;;5036050;28;20056;-71
2023/09/26 03:10:07;;;;;;;15.70;5.03;;;12.40;99.90;;;;;;5037208;28;20053;-72
2023/09/26 03:12:34;;;;;;;7.22;5.88;;;12.50;99.90;;;;;;5036582;28;20050;-67
2023/09/26 03:15:02;;;;;;;8.60;5.88;;;12.40;99.90;;;;;;5035097;28;20037;-69
2023/09/26 03:17:29;;;;;;;14.35;6.20;;;12.40;99.90;;;;;;5036978;28;20160;-63
2023/09/26 03:19:56;;;;;;;8.52;4.55;;;12.40;99.90;;;;;;5038886;28;20368;-65
2023/09/26 03:22:23;;;;;;;8.32;5.57;;;12.40;99.90;;;;;;5048719;28;20697;-74
2023/09/26 03:24:50;;;;;;;10.30;6.00;;;12.40;99.90;;;;;;5036620;28;20057;-65
2023/09/26 03:27:17;;;;;;;5.72;4.78;;;12.40;99.90;;;;;;5036361;28;20602;-63
2023/09/26 03:29:44;;;;;;;7.93;4.68;;;12.40;99.90;;;;;;5036941;28;20064;-64
2023/09/26 03:32:11;;;;;;;9.63;4.28;;;12.30;99.90;;;;;;5039806;28;20143;-67
2023/09/26 03:34:38;;;;;;;6.88;4.85;;;12.30;99.90;;;;;;5034339;28;20130;-71
2023/09/26 03:37:05;;;;;;;5.70;5.03;;;12.30;99.90;;;;;;5037008;28;20037;-68
2023/09/26 03:39:32;;;;;;;8.95;6.10;;;12.30;99.90;;;;;;5035885;28;20037;-67
2023/09/26 03:41:59;;;;;;;11.00;5.38;;;12.30;99.90;;;;;;5038765;28;20046;-65
2023/09/26 03:44:26;;;;;;;8.55;5.40;;;12.30;99.90;;;;;;5033207;28;20073;-75
2023/09/26 03:46:53;;;;;;;9.98;6.18;;;12.30;99.90;;;;;;5037063;28;20048;-65
2023/09/26 03:49:20;;;;;;;7.30;5.25;;;12.30;99.90;;;;;;5035182;28;20913;-66
2023/09/26 03:51:47;;;;;;;11.73;6.25;;;12.30;99.90;;;;;;5034793;28;20049;-66
2023/09/26 03:54:14;;;;;;;13.20;5.18;;;12.30;99.90;;;;;;5036878;28;20037;-63
2023/09/26 03:56:41;;;;;;;7.72;6.15;;;12.40;99.90;;;;;;5039468;28;20069;-71
2023/09/26 03:59:08;;;;;;;10.63;5.40;;;12.30;99.90;;;;;;5031736;28;20041;-63
2023/09/26 04:01:35;;;;;;;8.23;5.53;;;12.40;99.90;;;;;;5036490;28;20139;-63
2023/09/26 04:04:02;;;;;;;6.63;5.25;;;12.40;99.90;;;;;;5037294;28;20592;-68
2023/09/26 04:06:32;;;;;;;5.60;5.03;;;12.40;99.90;;;;;;5040504;28;20132;-67
2023/09/26 04:08:59;;;;;;;7.05;5.13;;;12.30;99.90;;;;;;5030458;28;20645;-64
2023/09/26 04:11:26;;;;;;;7.35;4.55;;;12.30;99.90;;;;;;5040006;28;20045;-63
2023/09/26 04:13:53;;;;;;;7.85;5.22;;;12.30;99.90;;;;;;5033656;28;20446;-67
2023/09/26 04:16:20;;;;;;;9.52;5.20;;;12.20;99.90;;;;;;5035908;28;20710;-63
2023/09/26 04:18:48;;;;;;;13.77;5.47;;;12.20;99.90;;;;;;5034463;28;20025;-66
2023/09/26 04:21:15;;;;;;;7.80;4.95;;;12.20;99.90;;;;;;5036368;28;20095;-63
2023/09/26 04:23:42;;;;;;;7.90;5.10;;;12.20;99.90;;;;;;5034669;28;20056;-69
2023/09/26 04:26:13;;;;;;;7.38;4.28;;;12.20;99.90;;;;;;5037800;28;20102;-64
2023/09/26 04:28:44;;;;;;;10.18;5.05;;;12.20;99.90;;;;;;5036881;28;20513;-71
2023/09/26 04:31:16;;;;;;;11.55;6.35;;;12.10;99.90;;;;;;5036577;28;20127;-63
2023/09/26 04:33:46;;;;;;;8.60;6.78;;;12.10;99.90;;;;;;5036786;28;20112;-67
2023/09/26 04:36:14;;;;;;;6.68;4.78;;;12.10;99.90;;;;;;5037473;28;20044;-70
2023/09/26 04:38:41;;;;;;;8.77;5.72;;;12.10;99.90;;;;;;5029701;28;20038;-66
2023/09/26 04:41:08;;;;;;;7.63;4.30;;;12.00;99.90;;;;;;5035546;28;20045;-66
2023/09/26 04:43:37;;;;;;;5.57;5.05;;;12.00;99.90;;;;;;5035583;28;20033;-67
2023/09/26 04:46:11;;;;;;;6.78;5.63;;;12.00;99.90;;;;;;5037467;28;20041;-72
2023/09/26 04:48:39;;;;;;;6.13;5.07;;;12.00;99.90;;;;;;5038263;28;20048;-64
2023/09/26 04:51:16;;;;;;;8.98;6.43;;;12.00;99.90;;;;;;5032255;28;20152;-64
2023/09/26 04:53:43;;;;;;;11.57;6.07;;;12.00;99.90;;;;;;5031636;28;20072;-72
2023/09/26 04:56:11;;;;;;;6.55;5.25;;;12.00;99.90;;;;;;5032032;28;20498;-65
2023/09/26 04:58:38;;;;;;;8.35;4.72;;;12.00;99.90;;;;;;5037591;28;20046;-64
2023/09/26 05:01:15;;;;;;;7.82;5.13;;;12.00;99.90;;;;;;5032317;28;20045;-70
2023/09/26 05:03:43;;;;;;;9.88;5.07;;;12.00;99.90;;;;;;5032769;28;20120;-71
2023/09/26 05:06:11;;;;;;;12.55;5.97;;;12.10;99.90;;;;;;5036597;28;20375;-67
2023/09/26 05:08:40;;;;;;;7.20;5.97;;;12.10;99.90;;;;;;5029842;28;20466;-69
2023/09/26 05:11:15;;;;;;;9.63;5.75;;;12.10;99.90;;;;;;5030801;28;20049;-72
2023/09/26 05:13:43;;;;;;;6.38;4.60;;;12.10;99.90;;;;;;5033447;28;20041;-68
2023/09/26 05:16:11;;;;;;;9.32;5.68;;;12.10;99.90;;;;;;5037100;28;20049;-67
2023/09/26 05:18:38;;;;;;;5.38;4.68;;;12.10;99.90;;;;;;5035869;28;20116;-68
2023/09/26 05:21:06;;;;;;;6.05;5.38;;;12.10;99.90;;;;;;5035875;28;20045;-68
2023/09/26 05:23:34;;;;;;;6.72;5.72;;;12.10;99.90;;;;;;5034821;28;20049;-73
2023/09/26 05:26:11;;;;;;;7.40;5.15;;;12.20;99.90;;;;;;5033371;28;20087;-68
2023/09/26 05:28:39;;;;;;;6.68;5.70;;;12.30;99.90;;;;;;5038142;28;20048;-69
2023/09/26 05:31:07;;;;;;;8.48;5.00;;;12.30;99.90;;;;;;5040921;28;20047;-67
2023/09/26 05:33:34;;;;;;;7.88;6.53;;;12.30;99.90;;;;;;5029068;28;20491;-69
2023/09/26 05:36:02;;;;;;;9.18;5.78;;;12.40;99.90;;;;;;5038197;28;20072;-68
2023/09/26 05:38:31;;;;;;;8.32;5.32;;;12.40;99.90;;;;;;5032424;28;20539;-69
2023/09/26 05:40:58;;;;;;;9.10;6.30;;;12.50;99.90;;;;;;5035405;28;20049;-65
2023/09/26 05:43:25;;;;;;;8.75;5.70;;;12.50;99.90;;;;;;5037234;28;20130;-64
2023/09/26 05:45:52;;;;;;;9.60;5.80;;;12.60;99.90;;;;;;5034445;28;20095;-67
2023/09/26 05:48:19;;;;;;;15.07;6.97;;;12.60;99.90;;;;;;5036238;28;20072;-64
2023/09/26 05:50:47;;;;;;;9.10;6.45;;;12.60;99.90;;;;;;5033763;28;20037;-64
2023/09/26 05:53:13;;;;;;;6.10;4.90;;;12.70;99.90;;;;;;5040611;28;20045;-65
2023/09/26 05:55:40;;;;;;;5.70;5.13;;;12.80;99.90;;;;;;5034656;28;20083;-69
2023/09/26 05:58:07;;;;;;;9.02;5.70;;;12.80;99.90;;;;;;5036170;28;20372;-63
2023/09/26 06:00:36;;;;;;;7.43;6.03;;;12.80;99.90;;;;;;5031044;28;20051;-65
2023/09/26 06:03:03;;;;;;;7.80;5.95;;;12.90;99.90;;;;;;5033728;28;21374;-71
2023/09/26 06:05:30;;;;;;;11.40;5.70;;;12.90;99.90;;;;;;5034061;28;20088;-74
2023/09/26 06:07:58;;;;;;;8.18;6.53;;;12.90;99.90;;;;;;5036046;28;20483;-68
2023/09/26 06:10:25;;;;;;;7.88;6.25;;;13.00;99.90;;;;;;5032739;28;20057;-71
2023/09/26 06:12:53;;;;;;;7.65;6.20;;;13.00;99.90;;;;;;5035019;28;20052;-64
2023/09/26 06:15:22;;;;;;;9.35;5.82;;;13.00;99.90;;;;;;5032148;28;20467;-64
2023/09/26 06:17:49;;;;;;;11.48;7.15;;;13.10;99.90;;;;;;5037939;28;20040;-75
2023/09/26 06:20:16;;;;;;;8.10;6.00;;;13.20;99.90;;;;;;5035708;28;20045;-72
2023/09/26 06:22:43;;;;;;;7.65;6.13;;;13.20;99.90;;;;;;5036999;28;20198;-64
2023/09/26 06:25:10;;;;;;;9.55;6.68;;;13.20;99.90;;;;;;5034359;28;20068;-76
2023/09/26 06:27:38;;;;;;;6.18;5.53;;;13.30;99.90;;;;;;5032018;28;20045;-68
2023/09/26 06:30:05;;;;;;;7.47;5.28;;;13.30;99.90;;;;;;5032386;28;20041;-68
2023/09/26 06:32:34;;;;;;;6.80;6.03;;;13.30;99.90;;;;;;5034484;28;20042;-71
2023/09/26 06:35:01;;;;;;;8.82;6.55;;;13.40;99.90;;;;;;5036800;28;20463;-73
2023/09/26 06:37:28;;;;;;;5.55;4.82;;;13.50;99.90;;;;;;5037653;28;20041;-65
2023/09/26 06:40:00;;;;;;;9.45;6.78;;;13.50;99.90;;;;;;5032065;28;20033;-66
2023/09/26 06:42:27;;;;;;;12.90;7.35;;;13.60;99.90;;;;;;5042309;28;20048;-64
2023/09/26 06:44:54;;;;;;;9.30;6.25;;;13.70;99.90;;;;;;5033809;28;20099;-65
2023/09/26 06:47:21;;;;;;;10.30;6.32;;;13.80;99.90;;;;;;5042443;28;20140;-67
2023/09/26 06:49:48;;;;;;;8.95;6.25;;;13.80;99.90;;;;;;5034457;28;20096;-68
2023/09/26 06:52:16;;;;;;;8.45;6.25;;;13.90;99.90;;;;;;5043375;28;20048;-70
2023/09/26 06:54:44;;;;;;;10.07;7.38;;;14.00;99.90;;;;;;5038932;28;20473;-67
2023/09/26 06:57:15;;;;;;;8.50;6.28;;;14.00;99.90;;;;;;5036036;28;20041;-68
2023/09/26 06:59:42;;;;;;;7.82;5.90;;;14.10;99.90;;;;;;5042490;28;20390;-68
2023/09/26 07:02:09;;;;;;;15.80;8.20;;;14.20;99.90;;;;;;5037721;28;20508;-68
2023/09/26 07:04:36;;;;;;;7.43;5.82;;;14.40;99.90;;;;;;5043156;28;20041;-67
2023/09/26 07:07:03;;;;;;;7.93;6.35;;;14.50;99.90;;;;;;5043205;28;20479;-75
2023/09/26 07:09:30;;;;;;;9.38;6.10;;;14.50;99.90;;;;;;5038621;28;20054;-69
2023/09/26 07:11:57;;;;;;;8.65;6.68;;;14.60;99.90;;;;;;5038856;28;20147;-65
2023/09/26 07:14:24;;;;;;;7.65;5.85;;;14.70;99.90;;;;;;5035248;28;20037;-64
2023/09/26 07:16:51;;;;;;;8.02;5.30;;;14.80;99.90;;;;;;5044328;28;20483;-69
2023/09/26 07:19:18;;;;;;;6.93;5.93;;;14.80;99.90;;;;;;5039380;28;20044;-72
2023/09/26 07:21:45;;;;;;;10.52;6.28;;;14.90;99.90;;;;;;5040876;28;20045;-70
2023/09/26 07:24:12;;;;;;;11.93;5.28;;;15.00;99.90;;;;;;5039270;28;20053;-65
2023/09/26 07:26:40;;;;;;;8.52;5.18;;;15.10;99.90;;;;;;5035919;28;20635;-66
2023/09/26 07:29:07;;;;;;;10.02;5.38;;;15.10;99.90;;;;;;5037350;28;20036;-67
2023/09/26 07:31:35;;;;;;;7.13;5.50;;;15.20;99.90;;;;;;5038608;28;20045;-65
2023/09/26 07:34:02;;;;;;;10.52;4.95;;;15.30;99.90;;;;;;5044951;28;20502;-67
2023/09/26 07:36:32;;;;;;;5.90;5.28;;;15.40;99.90;;;;;;5038084;28;20053;-65
2023/09/26 07:38:59;;;;;;;5.65;5.03;;;15.50;99.90;;;;;;5047209;28;20037;-64
2023/09/26 07:41:26;;;;;;;10.70;4.60;;;15.50;99.90;;;;;;5046240;28;20051;-70
2023/09/26 07:43:53;;;;;;;5.32;4.50;;;15.60;99.90;;;;;;5044093;28;20551;-65
2023/09/26 07:46:20;;;;;;;6.60;4.03;;;15.70;99.90;;;;;;5035737;28;20045;-66
2023/09/26 07:48:48;;;;;;;8.77;4.70;;;15.70;99.90;;;;;;5043207;28;20030;-64
2023/09/26 07:51:16;;;;;;;7.95;3.88;;;15.80;99.90;;;;;;5035023;28;20073;-68
2023/09/26 07:53:43;;;;;;;5.53;3.65;;;15.90;99.90;;;;;;5039214;28;20520;-68
2023/09/26 07:56:10;;;;;;;5.10;3.13;;;16.00;99.90;;;;;;5044416;28;20049;-66
2023/09/26 07:58:37;;;;;;;3.47;3.15;;;16.10;99.90;;;;;;5033004;28;20044;-72
2023/09/26 08:01:09;;;;;;;7.53;3.60;;;16.10;99.90;;;;;;5034967;28;20075;-68
2023/09/26 08:03:39;;;;;;;7.40;4.55;;;16.20;99.90;;;;;;5040091;28;20067;-68
2023/09/26 08:06:07;;;;;;;4.38;3.17;;;16.30;99.90;;;;;;5040501;28;20053;-74
2023/09/26 08:08:34;;;;;;;3.67;3.25;;;16.30;99.90;;;;;;5040335;28;21083;-65
2023/09/26 08:11:10;;;;;;;3.17;2.58;;;16.40;99.90;;;;;;5035902;28;20053;-69
2023/09/26 08:13:39;;;;;;;7.05;3.75;;;16.50;99.90;;;;;;5035429;28;20049;-66
2023/09/26 08:16:06;;;;;;;5.13;2.67;;;16.50;99.90;;;;;;5043318;28;20049;-64
2023/09/26 08:18:33;;;;;;;7.35;3.83;;;16.60;99.90;;;;;;5037489;28;20455;-65
2023/09/26 08:21:00;;;;;;;4.85;2.88;;;16.70;99.90;;;;;;5036366;28;20422;-65
2023/09/26 08:23:31;;;;;;;4.40;3.00;;;16.70;99.90;;;;;;5042594;28;20483;-70
2023/09/26 08:26:02;;;;;;;6.53;3.85;;;16.80;99.90;;;;;;5035808;28;20045;-70
2023/09/26 08:28:30;;;;;;;5.63;4.75;;;17.00;99.90;;;;;;5033874;28;20099;-66
2023/09/26 08:31:07;;;;;;;8.10;3.30;;;17.10;99.90;;;;;;5037773;28;20120;-66
2023/09/26 08:33:35;;;;;;;3.97;3.65;;;17.20;99.90;;;;;;5035791;28;20049;-66
2023/09/26 08:36:02;;;;;;;3.63;2.35;;;17.30;99.90;;;;;;5033047;28;20091;-64
2023/09/26 08:38:29;;;;;;;4.10;3.65;;;17.40;99.90;;;;;;5037345;28;20042;-68
2023/09/26 08:40:57;;;;;;;3.40;2.85;;;17.50;99.90;;;;;;5037771;28;20122;-64
2023/09/26 08:43:26;;;;;;;4.22;2.58;;;17.50;99.90;;;;;;5039776;28;20128;-66
2023/09/26 08:45:53;;;;;;;4.20;2.88;;;17.60;99.90;;;;;;5042587;28;20119;-65
2023/09/26 08:48:21;;;;;;;3.42;3.13;;;17.60;99.90;;;;;;5036852;28;20554;-67
2023/09/26 08:50:50;;;;;;;3.17;2.58;;;17.70;99.90;;;;;;5038714;28;20494;-68
2023/09/26 08:53:17;;;;;;;4.18;2.53;;;17.80;99.90;;;;;;5034874;28;20056;-68
2023/09/26 08:55:49;;;;;;;3.20;2.90;;;17.90;99.90;;;;;;5041683;28;20124;-66
2023/09/26 08:58:17;;;;;;;5.40;2.85;;;18.00;99.90;;;;;;5040219;28;20368;-68
2023/09/26 09:00:43;;;;;;;3.17;2.80;;;18.10;99.90;;;;;;5038565;28;20040;-70
2023/09/26 09:03:11;;;;;;;2.92;2.63;;;18.20;99.90;;;;;;5037377;28;20051;-65
2023/09/26 09:05:42;;;;;;;4.82;3.40;;;18.30;99.90;;;;;;5038192;28;20044;-70
2023/09/26 09:08:20;;;;;;;4.15;2.97;;;18.30;99.90;;;;;;5035699;28;20037;-71
2023/09/26 09:10:52;;;;;;;5.50;2.80;;;18.40;99.90;;;;;;5036582;28;20045;-65
2023/09/26 09:13:34;;;;;;;5.18;2.95;;;18.60;99.90;;;;;;5038472;28;20483;-67
2023/09/26 09:16:11;;;;;;;5.35;2.53;;;18.50;99.90;;;;;;5038103;28;20059;-70
2023/09/26 09:18:42;;;;;;;2.75;2.40;;;18.60;99.90;;;;;;5040344;28;20538;-72
2023/09/26 09:21:25;;;;;;;5.13;2.75;;;18.60;99.90;;;;;;5039060;28;20139;-67
2023/09/26 09:23:53;;;;;;;3.88;3.00;;;18.70;99.90;;;;;;5041068;28;20045;-67
2023/09/26 09:26:26;;;;;;;3.67;2.50;;;18.60;99.90;;;;;;5037241;28;20118;-65
2023/09/26 09:28:55;;;;;;;5.20;2.85;;;18.60;99.90;;;;;;5040219;28;20048;-65
2023/09/26 09:31:22;;;;;;;3.60;3.00;;;18.60;99.90;;;;;;5038126;28;20056;-64
2023/09/26 09:33:55;;;;;;;4.15;2.63;;;18.50;99.90;;;;;;5042353;28;20510;-65
2023/09/26 09:36:23;;;;;;;7.57;2.97;;;18.50;99.90;;;;;;5036472;28;20558;-67
2023/09/26 09:38:50;;;;;;;6.97;3.50;;;18.50;99.90;;;;;;5037186;28;20052;-64
2023/09/26 09:41:18;;;;;;;4.07;2.80;;;18.50;99.90;;;;;;5040940;28;20106;-68
2023/09/26 09:43:45;;;;;;;4.32;2.45;;;18.60;99.90;;;;;;5034375;28;20045;-65
2023/09/26 09:46:15;;;;;;;9.50;2.60;;;18.50;99.90;;;;;;5033788;28;20053;-67
2023/09/26 09:48:44;;;;;;;5.47;3.20;;;18.40;99.90;;;;;;5038113;28;20589;-71
2023/09/26 09:51:13;;;;;;;4.55;3.17;;;18.30;99.90;;;;;;5037934;28;20069;-68
2023/09/26 09:53:42;;;;;;;4.63;2.88;;;18.30;99.90;;;;;;5034204;28;20041;-70
2023/09/26 09:56:18;;;;;;;3.88;2.28;;;18.40;99.90;;;;;;5038924;28;20415;-68
2023/09/26 09:58:49;;;;;;;3.35;3.00;;;18.40;99.90;;;;;;5036302;28;20061;-64
2023/09/26 10:01:21;;;;;;;9.00;2.83;;;18.50;99.90;;;;;;5038395;28;20056;-67
2023/09/26 10:03:50;;;;;;;3.63;3.00;;;18.60;99.90;;;;;;5036895;28;20045;-66
2023/09/26 10:06:20;;;;;;;2.83;2.05;;;18.60;99.90;;;;;;5035337;28;20581;-65
2023/09/26 10:08:49;;;;;;;6.80;2.95;;;18.60;99.90;;;;;;5038275;28;20509;-68
2023/09/26 10:11:18;;;;;;;5.15;2.67;;;18.70;99.90;;;;;;5034092;28;20049;-67
2023/09/26 10:13:47;;;;;;;3.63;2.93;;;18.80;99.90;;;;;;5029904;28;20068;-72
2023/09/26 10:16:17;;;;;;;4.63;2.30;;;18.80;99.90;;;;;;5064641;28;20403;-67
2023/09/26 10:18:47;;;;;;;4.45;2.47;;;18.80;99.90;;;;;;5033034;28;21406;-67
2023/09/26 10:21:27;;;;;;;4.53;2.78;;;18.90;99.90;;;;;;5031799;28;20115;-67
2023/09/26 10:24:23;;;;;;;3.22;2.63;;;18.90;99.90;;;;;;5034341;28;20041;-66
2023/09/26 10:26:51;;;;;;;5.43;2.13;;;19.00;99.90;;;;;;5028688;28;20140;-67
2023/09/26 10:29:21;;;;;;;5.57;2.50;;;19.00;99.90;;;;;;5034860;28;20111;-65
2023/09/26 10:31:58;;;;;;;4.97;1.90;;;19.00;99.90;;;;;;5036846;28;20371;-64
2023/09/26 10:34:36;;;;;;;2.03;1.88;;;19.00;99.90;;;;;;5032901;28;20474;-68
2023/09/26 10:37:15;;;;;;;3.65;3.13;;;19.10;99.90;;;;;;5029909;28;20053;-67
2023/09/26 10:39:43;;;;;;;4.65;2.60;;;19.00;99.90;;;;;;5028712;28;20376;-71
2023/09/26 10:42:19;;;;;;;11.13;3.75;;;18.90;99.90;;;;;;5032979;28;20059;-68
2023/09/26 10:45:07;;;;;;;3.85;2.42;;;18.80;99.90;;;;;;5033620;28;20764;-67
2023/09/26 10:47:36;;;;;;;4.78;2.72;;;18.80;99.90;;;;;;5029465;28;20479;-65
2023/09/26 10:50:24;;;;;;;4.15;2.78;;;18.90;99.90;;;;;;5033863;28;20104;-72
2023/09/26 10:52:52;;;;;;;4.32;2.92;;;19.00;99.90;;;;;;5033023;28;20041;-66
2023/09/26 10:55:20;;;;;;;4.88;2.88;;;19.10;99.90;;;;;;5029970;28;20041;-65
2023/09/26 10:57:51;;;;;;;3.70;2.60;;;19.20;99.90;;;;;;5027144;28;20466;-69
2023/09/26 11:00:18;;;;;;;;;;;19.20;99.90;;;;;;5033829;28;20054;-66
2023/09/26 11:02:47;;;;;;;3.63;2.25;;;19.30;99.90;;;;;;5029926;28;19925;-69
2023/09/26 11:05:15;;;;;;;7.32;2.83;;;19.30;99.90;;;;;;5030180;28;20414;-67
2023/09/26 11:07:46;;;;;;;6.05;2.17;;;19.30;99.90;;;;;;5031240;28;20051;-69
2023/09/26 11:10:14;;;;;;;5.93;2.83;;;19.30;99.90;;;;;;5034000;28;20392;-68
2023/09/26 11:12:43;;;;;;;4.68;2.38;;;19.40;99.90;;;;;;5031290;28;20402;-70
2023/09/26 11:15:10;;;;;;;8.23;2.90;;;19.40;99.90;;;;;;5033672;28;20107;-75
2023/09/26 11:17:38;;;;;;;4.85;2.67;;;19.40;99.90;;;;;;5030672;28;20505;-76
2023/09/26 11:20:07;;;;;;;3.38;2.53;;;19.50;99.90;;;;;;5034808;28;20044;-66
2023/09/26 11:22:44;;;;;;;6.40;3.08;;;19.60;99.90;;;;;;5030767;28;20053;-63
2023/09/26 11:25:11;;;;;;;3.13;2.70;;;19.70;99.90;;;;;;5035164;28;20048;-65
2023/09/26 11:27:46;;;;;;;3.92;2.20;;;19.80;99.90;;;;;;5036057;28;20418;-67
2023/09/26 11:30:17;;;;;;;7.50;2.28;;;19.80;99.90;;;;;;5035831;28;20048;-67
2023/09/26 11:32:48;;;;;;;4.88;2.63;;;19.80;99.90;;;;;;5034536;28;20087;-69
2023/09/26 11:35:16;;;;;;;13.20;3.38;;;19.90;99.90;;;;;;5038955;28;20060;-66
2023/09/26 11:37:50;;;;;;;3.28;2.97;;;20.10;99.90;;;;;;5038087;28;20057;-69
2023/09/26 11:40:27;;;;;;;9.27;3.22;;;20.20;99.90;;;;;;5036254;28;20037;-72
2023/09/26 11:42:59;;;;;;;3.25;2.92;;;20.00;99.90;;;;;;5034244;28;20376;-64
2023/09/26 11:45:28;;;;;;;4.70;2.63;;;19.80;99.90;;;;;;5035566;28;20051;-66
2023/09/26 11:47:59;;;;;;;9.07;2.55;;;19.90;99.90;;;;;;5030609;28;20454;-64
2023/09/26 11:50:27;;;;;;;4.78;3.08;;;20.00;99.90;;;;;;5034395;28;20041;-65
2023/09/26 11:53:00;;;;;;;5.40;2.67;;;20.00;99.90;;;;;;5029619;28;20051;-62
2023/09/26 11:55:30;;;;;;;3.90;2.97;;;19.80;99.90;;;;;;5035320;28;20069;-64
2023/09/26 11:57:58;;;;;;;5.00;3.30;;;19.80;99.90;;;;;;5032723;28;20068;-64
2023/09/26 12:00:26;;;;;;;8.55;4.13;;;19.90;99.90;;;;;;5036737;28;20044;-64
2023/09/26 12:02:56;;;;;;;;;;;19.90;99.90;;;;;;5032786;28;20053;-65
2023/09/26 12:05:23;;;;;;;4.97;3.95;;;19.90;99.90;;;;;;5039504;28;20363;-64
2023/09/26 12:07:50;;;;;;;4.95;3.38;;;20.00;99.90;;;;;;5032524;28;20049;-72
2023/09/26 12:10:18;;;;;;;4.45;3.03;;;19.90;99.90;;;;;;5033722;28;20135;-70
2023/09/26 12:12:48;;;;;;;7.90;3.22;;;19.90;99.90;;;;;;5035057;28;20046;-68
2023/09/26 12:15:20;;;;;;;5.82;3.20;;;19.60;99.90;;;;;;5038222;28;20677;-72
2023/09/26 12:17:48;;;;;;;5.20;4.00;;;19.40;99.90;;;;;;5033304;28;20054;-64
2023/09/26 12:20:18;;;;;;;4.00;3.42;;;19.40;99.90;;;;;;5035983;28;20128;-65
2023/09/26 12:22:45;;;;;;;9.98;3.95;;;19.30;99.90;;;;;;5036406;28;20060;-66
2023/09/26 12:25:12;;;;;;;4.32;3.92;;;19.20;99.90;;;;;;5035087;28;20287;-69
2023/09/26 12:27:39;;;;;;;5.65;3.58;;;19.40;99.90;;;;;;5034424;28;20052;-67
2023/09/26 12:30:06;;;;;;;3.80;3.00;;;19.40;99.90;;;;;;5036815;28;20041;-70
2023/09/26 12:32:33;;;;;;;5.90;3.85;;;19.50;99.90;;;;;;5033295;28;20076;-66
2023/09/26 12:35:00;;;;;;;2.83;2.63;;;19.50;99.90;;;;;;5034263;28;20043;-71
2023/09/26 12:37:28;;;;;;;5.05;3.45;;;19.40;99.90;;;;;;5033275;28;20045;-67
2023/09/26 12:39:54;;;;;;;7.65;3.80;;;19.20;99.90;;;;;;5032876;28;20041;-65
2023/09/26 12:42:22;;;;;;;6.97;4.22;;;19.10;99.90;;;;;;5036276;28;20045;-67
2023/09/26 12:44:48;;;;;;;5.50;3.65;;;19.10;99.90;;;;;;5031991;28;20033;-67
2023/09/26 12:47:15;;;;;;;4.05;3.10;;;19.10;99.90;;;;;;5030096;28;20045;-69
2023/09/26 12:49:48;;;;;;;4.40;3.60;;;19.10;99.90;;;;;;5034798;28;20565;-74
2023/09/26 12:52:16;;;;;;;6.00;3.20;;;19.00;99.90;;;;;;5033061;28;20045;-70